Main page
METAR-TAF:

METAR-TAF

Airports :

Beijing Capital International Airport

Beijing, China

latitude: 39-56N, longitude: 116-17E, elevation: 55 m

Current weather observation

The report was made 37 minutes ago, at 23:30 UTC
Wind 4 kt from the East/Southeast, varying between East and South/Southeast
Temperature 24°C
Humidity 78%
Pressure 1004 hPa
Visibility: 3200 m
mist

METAR: ZBAA 172330Z 12002MPS 090V160 3200 BR NSC 24/20 Q1004 NOSIG

Time: 08:07 (00:07 UTC)

Forecast

The report was made 2 hours and 37 minutes ago, at 21:30 UTC
Forecast valid from 18 at 00 UTC to 18 at 24 UTC
Wind 8 kt from the South/Southeast
Visibility: 3500 m
mist
Temporary
from 18 at 10 UTC to 18 at 16 UTC
Few clouds at a height of 4000 ft, Cumulonimbus.
Broken clouds at a height of 4000 ft
thunderstorm, light rain

TAF: ZBAA 172130Z 1800/1824 16004MPS 3500 BR NSC TX31/1807Z TN21/1821Z TEMPO 1810/1816 -TSRA FEW040CB BKN040

Weather observations and forecasts of more than 4000 airports (METAR and TAF reports).

The available stations are represented by yellow and red dots on the map.

Hover mouse over dot to see the name of the station.

Then click to see weather observations and forecasts.

To change the map : click on the green buttons with a black cross to zoom in, on the green button with a dash to zoom out, or on the green arrows for adjacent maps.


METAR-TAF: